»·PEaware :: N138FH KEUG-KOTH

N138FH :: KEUG-KOTH

FLIGHT INFORMATION

Flight Status: Arrived
Operator: Privately registered:
United States
More flights under this callsign
Pilot: Anonymous 26047 (26047)
Aircraft: BEECH AIRCRAFT A90-E90 KING AIR
(BE9L)
More flights by this aircraft type
Origin: KEUG Mahlon Sweet
United States
Destination: KOTH North Bend Mun
United States
More flights between these airports :: More routes between these airports
Route: EUG V121 OTH
File this flight plan on PilotEdge
Remarks:
Altitude:
(Current/Filed)
8,000ft
Speed:
(Current/Filed)
250kts
Departed: 15-Nov-19 07:37 PM
Arrived: 15-Nov-19 08:06 PM
Distance/Time
Traveled:
61nm/0:29
Distance/Time
To Go:
Arrived

Flight Plot

Page will automatically refresh every two minutes.

Flight plan parsing failed; only flown route is shown


Map Options




Map Legend


Flown Route
Filed Route
Departure Airport
Arrival Airport
Navaid (VOR, NDB)
Fix

Horizontal Profiles

Position Reports

Time Latitude Longitude Heading Altitude Ground
Speed
15-Nov-19 19:15 44.117920 -123.215197 42 367ft 0kts
15-Nov-19 19:16 44.117920 -123.215197 42 367ft 0kts
15-Nov-19 19:17 44.117920 -123.215197 42 367ft 0kts
15-Nov-19 19:18 44.117920 -123.215197 42 367ft 0kts
15-Nov-19 19:19 44.117920 -123.215197 42 367ft 0kts
15-Nov-19 19:20 44.117921 -123.215197 42 367ft 0kts
15-Nov-19 19:21 44.117921 -123.215197 42 367ft 0kts
15-Nov-19 19:22 44.117921 -123.215197 42 367ft 0kts
15-Nov-19 19:23 44.117921 -123.215197 42 367ft 0kts
15-Nov-19 19:24 44.117921 -123.215197 42 367ft 0kts
15-Nov-19 19:25 44.117921 -123.215197 42 367ft 0kts
15-Nov-19 19:26 44.117921 -123.215197 42 367ft 0kts
15-Nov-19 19:27 44.118134 -123.215322 319 367ft 4kts
15-Nov-19 19:28 44.118999 -123.215893 302 366ft 7kts
15-Nov-19 19:29 44.121669 -123.217038 359 364ft 12kts
15-Nov-19 19:30 44.125549 -123.217075 359 361ft 15kts
15-Nov-19 19:31 44.130136 -123.217145 359 357ft 16kts
15-Nov-19 19:32 44.134766 -123.217202 357 354ft 15kts
15-Nov-19 19:33 44.135313 -123.218005 269 354ft 0kts
15-Nov-19 19:34 44.135313 -123.218005 269 354ft 0kts
15-Nov-19 19:35 44.134931 -123.219130 185 354ft 14kts
15-Nov-19 19:36 44.113207 -123.218920 178 722ft 123kts
15-Nov-19 19:37 44.074808 -123.216898 178 1912ft 145kts
15-Nov-19 19:38 44.033636 -123.216232 214 3444ft 146kts
15-Nov-19 19:39 44.036533 -123.259049 265 5054ft 131kts
15-Nov-19 19:40 44.023958 -123.306836 255 6713ft 132kts
15-Nov-19 19:41 44.010907 -123.356401 255 7970ft 155kts
15-Nov-19 19:42 43.980064 -123.413676 231 8004ft 208kts
15-Nov-19 19:43 43.937027 -123.472485 229 7999ft 220kts
15-Nov-19 19:44 43.892576 -123.532504 229 7997ft 223kts
15-Nov-19 19:45 43.847957 -123.592617 229 7996ft 223kts
15-Nov-19 19:46 43.803172 -123.652825 228 7997ft 223kts
15-Nov-19 19:47 43.758500 -123.712737 228 8000ft 224kts
15-Nov-19 19:48 43.713282 -123.773269 228 7991ft 226kts
15-Nov-19 19:49 43.668001 -123.833745 228 7991ft 226kts
15-Nov-19 19:50 43.622821 -123.893949 228 7991ft 225kts
15-Nov-19 19:51 43.578759 -123.952541 228 7073ft 211kts
15-Nov-19 19:52 43.537731 -124.006948 228 5999ft 186kts
15-Nov-19 19:53 43.501605 -124.054798 229 5999ft 179kts
15-Nov-19 19:54 43.466457 -124.101257 229 5996ft 164kts
15-Nov-19 19:55 43.434783 -124.142961 230 5995ft 149kts
15-Nov-19 19:56 43.413200 -124.185758 261 5457ft 139kts
15-Nov-19 19:57 43.404745 -124.241182 260 3966ft 154kts
15-Nov-19 19:58 43.396532 -124.298465 260 2988ft 130kts
15-Nov-19 19:59 43.380431 -124.339266 244 2133ft 138kts
15-Nov-19 20:00 43.351647 -124.359202 196 2001ft 123kts
15-Nov-19 20:01 43.346726 -124.387673 348 1991ft 121kts
15-Nov-19 20:02 43.373785 -124.360008 56 1750ft 150kts
15-Nov-19 20:03 43.393461 -124.312415 59 881ft 116kts
15-Nov-19 20:04 43.408590 -124.275561 60 297ft 112kts
15-Nov-19 20:05 43.415825 -124.255717 149 14ft 0kts
15-Nov-19 20:06 43.415825 -124.255717 149 14ft 0kts
15-Nov-19 20:07 43.417770 -124.250057 59 25ft 21kts
15-Nov-19 20:08 43.417182 -124.245743 225 20ft 8kts
15-Nov-19 20:09 43.416780 -124.246650 239 25ft 0kts
15-Nov-19 20:10 43.416780 -124.246650 239 25ft 0kts
15-Nov-19 20:11 43.416780 -124.246650 239 25ft 0kts
15-Nov-19 20:12 43.416780 -124.246650 239 25ft 0kts
15-Nov-19 20:13 43.416780 -124.246650 239 25ft 0kts
15-Nov-19 20:14 43.416780 -124.246650 239 25ft 0kts
15-Nov-19 20:15 43.416780 -124.246650 239 25ft 0kts
15-Nov-19 20:16 43.416780 -124.246650 239 25ft 0kts
15-Nov-19 20:17 43.416780 -124.246650 239 25ft 0kts
15-Nov-19 20:18 43.416780 -124.246650 239 25ft 0kts
15-Nov-19 20:19 43.416780 -124.246650 239 25ft 0kts

Navigation Log

Ident Type
Flight plan parsing failed, navigation log unavailable